Time;durP1;ratioP1;P1;durP2;ratioP2;P2;SDS_P1;SDS_P2;PMS_P1;PMS_P2;Temp;Humidity;BMP_temperature;BMP_pressure;BME280_temperature;BME280_humidity;BME280_pressure;Samples;Min_cycle;Max_cycle;Signal;HPM_P1;HPM_P2
2022/09/27 00:00:16;;;;;;;;;;;;;;;11.80;87.39;98681.06;4972515;28;20013;-71
2022/09/27 00:03:20;;;;;;;;;;;;;;;11.75;87.07;98675.44;4974057;28;20346;-72
2022/09/27 00:06:24;;;;;;;;;;;;;;;11.77;86.66;98682.19;4974354;28;19921;-71
2022/09/27 00:09:28;;;;;;;;;;;;;;;11.79;87.14;98675.00;4974201;28;19937;-71
2022/09/27 00:12:31;;;;;;;;;;;;;;;11.62;87.22;98684.34;4974267;28;19920;-71
2022/09/27 00:15:34;;;;;;;;;;;;;;;11.50;86.58;98676.69;4974061;28;19949;-72
2022/09/27 00:18:41;;;;;;;;;;;;;;;11.63;86.67;98674.69;4974289;28;19944;-72
2022/09/27 00:21:45;;;;;;;;;;;;;;;11.67;86.73;98675.25;4973946;28;19921;-72
2022/09/27 00:24:49;;;;;;;;;;;;;;;11.58;86.33;98682.09;4973734;28;19968;-72
2022/09/27 00:27:52;;;;;;;;;;;;;;;11.53;85.21;98684.28;4973634;28;20064;-71
2022/09/27 00:30:56;;;;;;;;;;;;;;;11.41;84.99;98676.50;4974242;28;19960;-71
2022/09/27 00:34:01;;;;;;;;;;;;;;;11.44;86.33;98679.84;4974118;28;19976;-72
2022/09/27 00:37:04;;;;;;;;;;;;;;;11.37;86.62;98680.34;4974063;28;19921;-71
2022/09/27 00:40:07;;;;;;;;;;;;;;;11.12;87.03;98670.31;4973665;28;19948;-72
2022/09/27 00:43:17;;;;;;;;;;;;;;;11.30;87.56;98674.00;4961635;28;19925;-72
2022/09/27 00:46:40;;;;;;;;;;;;;;;11.25;86.57;98670.94;4973723;28;19937;-72
2022/09/27 00:49:43;;;;;;;;;;;;;;;11.43;85.98;98667.72;4961629;28;19976;-71
2022/09/27 00:52:53;;;;;;;;;;;;;;;11.38;86.39;98666.31;4972992;28;19925;-72
2022/09/27 00:55:59;;;;;;;;;;;;;;;11.30;86.42;98678.41;4961278;28;19920;-71
2022/09/27 00:59:08;;;;;;;;;;;;;;;11.30;87.30;98668.75;4960468;28;20292;-72
2022/09/27 01:02:11;;;;;;;;;;;;;;;11.20;87.80;98667.03;4972863;28;19925;-72
2022/09/27 01:05:19;;;;;;;;;;;;;;;11.36;88.13;98672.66;4972788;28;19968;-72
2022/09/27 01:08:23;;;;;;;;;;;;;;;11.58;87.48;98671.63;4973522;28;19921;-72
2022/09/27 01:11:46;;;;;;;;;;;;;;;11.31;86.48;98680.88;4961353;28;19925;-71
2022/09/27 01:14:49;;;;;;;;;;;;;;;11.14;87.76;98663.16;4961279;28;19921;-71
2022/09/27 01:17:59;;;;;;;;;;;;;;;11.08;86.55;98674.16;4961357;28;20118;-71
2022/09/27 01:21:02;;;;;;;;;;;;;;;10.91;86.19;98672.91;4961682;28;20002;-72
2022/09/27 01:24:06;;;;;;;;;;;;;;;10.82;87.79;98669.31;4961142;28;19925;-72
2022/09/27 01:27:09;;;;;;;;;;;;;;;11.06;88.74;98668.19;4961335;28;19972;-72
2022/09/27 01:30:13;;;;;;;;;;;;;;;11.11;87.82;98666.88;4961066;28;19968;-71
2022/09/27 01:33:31;;;;;;;;;;;;;;;11.22;86.68;98665.13;4961251;28;19921;-71
2022/09/27 01:36:34;;;;;;;;;;;;;;;11.33;85.90;98667.69;4973282;28;20037;-71
2022/09/27 01:39:57;;;;;;;;;;;;;;;11.09;85.97;98670.56;4973119;28;19921;-71
2022/09/27 01:43:46;;;;;;;;;;;;;;;10.87;87.23;98674.13;4964134;28;19925;-72
2022/09/27 01:46:54;;;;;;;;;;;;;;;10.84;88.25;98663.94;4964699;28;20273;-71
2022/09/27 01:50:21;;;;;;;;;;;;;;;10.77;87.68;98675.84;4964181;28;19920;-72
2022/09/27 01:53:24;;;;;;;;;;;;;;;10.52;87.22;98682.25;4975698;28;19965;-71
2022/09/27 01:56:51;;;;;;;;;;;;;;;10.53;89.03;98683.91;4976552;28;20068;-71
2022/09/27 02:00:10;;;;;;;;;;;;;;;10.52;88.42;98679.66;4964777;28;19961;-71
2022/09/27 02:03:28;;;;;;;;;;;;;;;10.74;88.08;98694.41;4976316;28;20011;-71
2022/09/27 02:07:17;;;;;;;;;;;;;;;10.58;87.81;98694.81;4900716;28;19995;-71
2022/09/27 02:10:27;;;;;;;;;;;;;;;10.34;87.66;98695.88;4964093;28;19937;-72
2022/09/27 02:13:37;;;;;;;;;;;;;;;10.42;87.04;98709.13;4976253;28;19920;-71
2022/09/27 02:17:11;;;;;;;;;;;;;;;10.37;87.14;98705.22;4976512;28;19920;-71
2022/09/27 02:20:27;;;;;;;;;;;;;;;10.45;85.79;98711.50;4963852;28;20032;-71
2022/09/27 02:23:50;;;;;;;;;;;;;;;10.43;85.08;98716.03;4964016;28;19992;-71
2022/09/27 02:26:56;;;;;;;;;;;;;;;10.37;84.88;98726.97;4975829;28;19968;-71
2022/09/27 02:30:08;;;;;;;;;;;;;;;10.16;84.77;98716.41;4964154;28;19920;-71
2022/09/27 02:33:12;;;;;;;;;;;;;;;10.44;85.51;98727.31;4963797;28;19929;-71
2022/09/27 02:36:16;;;;;;;;;;;;;;;10.53;84.90;98723.09;4976072;28;19925;-71
2022/09/27 02:39:20;;;;;;;;;;;;;;;10.74;85.66;98728.41;4963708;28;19921;-72
2022/09/27 02:42:27;;;;;;;;;;;;;;;10.59;83.56;98733.06;4963757;28;20021;-71
2022/09/27 02:45:40;;;;;;;;;;;;;;;10.39;83.68;98735.50;4963645;28;19960;-71
2022/09/27 02:48:53;;;;;;;;;;;;;;;10.48;84.11;98744.41;4974445;28;19921;-71
2022/09/27 02:52:23;;;;;;;;;;;;;;;10.39;83.27;98745.94;4954995;28;19926;-72
2022/09/27 02:55:41;;;;;;;;;;;;;;;10.57;83.49;98753.28;4950589;29;20413;-71
2022/09/27 02:59:11;;;;;;;;;;;;;;;10.40;83.58;98763.31;4955469;29;19921;-71
2022/09/27 03:02:50;;;;;;;;;;;;;;;10.48;82.92;98763.50;4955079;29;20009;-71
2022/09/27 03:06:10;;;;;;;;;;;;;;;10.54;82.84;98764.00;4955258;29;20411;-71
2022/09/27 03:09:21;;;;;;;;;;;;;;;10.29;84.13;98768.53;4955325;29;19964;-72
2022/09/27 03:12:25;;;;;;;;;;;;;;;10.41;83.68;98775.41;4966381;28;19921;-72
2022/09/27 03:15:29;;;;;;;;;;;;;;;10.41;83.24;98778.03;4955319;29;19921;-72
2022/09/27 03:18:38;;;;;;;;;;;;;;;10.30;84.27;98772.81;4954830;29;19969;-72
2022/09/27 03:22:11;;;;;;;;;;;;;;;10.23;84.70;98785.50;4954103;29;20278;-71
2022/09/27 03:25:14;;;;;;;;;;;;;;;10.18;83.99;98792.06;4955366;28;19973;-72
2022/09/27 03:28:18;;;;;;;;;;;;;;;10.10;85.33;98786.59;4954970;29;20384;-72
2022/09/27 03:31:22;;;;;;;;;;;;;;;10.28;84.98;98789.56;4954736;29;19958;-72
2022/09/27 03:34:48;;;;;;;;;;;;;;;10.06;85.65;98793.00;4955179;29;20547;-72
2022/09/27 03:37:51;;;;;;;;;;;;;;;10.15;86.12;98789.69;4954585;29;19925;-72
2022/09/27 03:40:55;;;;;;;;;;;;;;;10.20;85.47;98787.50;4955008;29;20053;-72
2022/09/27 03:43:59;;;;;;;;;;;;;;;10.19;85.32;98788.47;4954398;29;20440;-72
2022/09/27 03:47:02;;;;;;;;;;;;;;;9.94;86.33;98798.22;4954110;29;20385;-72
2022/09/27 03:50:07;;;;;;;;;;;;;;;9.73;87.00;98797.25;4954940;29;20282;-72
2022/09/27 03:53:10;;;;;;;;;;;;;;;9.74;87.04;98791.91;4954132;29;19926;-71
2022/09/27 03:56:14;;;;;;;;;;;;;;;9.94;86.14;98805.22;4943456;29;19929;-71
2022/09/27 03:59:18;;;;;;;;;;;;;;;9.85;86.70;98783.25;4954799;29;19969;-72
2022/09/27 04:02:40;;;;;;;;;;;;;;;10.14;85.40;98793.22;4954554;28;19929;-72
2022/09/27 04:06:00;;;;;;;;;;;;;;;10.06;85.89;98793.81;4954123;29;20009;-72
2022/09/27 04:09:13;;;;;;;;;;;;;;;10.04;85.33;98792.28;4952686;29;19947;-72
2022/09/27 04:12:39;;;;;;;;;;;;;;;9.98;85.43;98806.63;4923219;29;20414;-72
2022/09/27 04:15:44;;;;;;;;;;;;;;;10.08;85.48;98804.97;4934560;29;19969;-72
2022/09/27 04:19:06;;;;;;;;;;;;;;;10.09;84.14;98805.81;4934352;29;19968;-71
2022/09/27 05:00:37;;;;;;;;;;;;;;;9.67;86.95;98832.47;4914733;29;20386;-72
2022/09/27 05:04:28;;;;;;;;;;;;;;;9.61;86.25;98835.56;4914939;29;20022;-72
2022/09/27 05:07:37;;;;;;;;;;;;;;;9.46;87.77;98839.31;4914368;29;19969;-72
2022/09/27 05:11:13;;;;;;;;;;;;;;;9.62;87.79;98844.22;4915241;29;19922;-72
2022/09/27 05:14:19;;;;;;;;;;;;;;;9.72;87.46;98840.78;4917742;29;19997;-73
2022/09/27 05:17:44;;;;;;;;;;;;;;;10.02;86.10;98850.69;4933958;29;20307;-73
2022/09/27 05:21:06;;;;;;;;;;;;;;;10.09;85.39;98858.06;4933841;29;19942;-72
2022/09/27 05:24:20;;;;;;;;;;;;;;;9.73;85.72;98852.03;4934928;29;19977;-72
2022/09/27 05:27:25;;;;;;;;;;;;;;;9.77;85.54;98859.53;4941290;29;19921;-73
2022/09/27 05:30:29;;;;;;;;;;;;;;;9.64;85.64;98863.19;4940859;29;19985;-73
2022/09/27 05:33:42;;;;;;;;;;;;;;;9.84;85.96;98870.34;4923768;29;19929;-73
2022/09/27 05:37:21;;;;;;;;;;;;;;;9.82;85.42;98877.47;4934119;29;20298;-73
2022/09/27 05:40:25;;;;;;;;;;;;;;;9.94;85.70;98883.53;4923239;29;19921;-73
2022/09/27 05:43:30;;;;;;;;;;;;;;;9.95;85.85;98888.63;4933691;29;19925;-73
2022/09/27 05:46:38;;;;;;;;;;;;;;;10.22;85.38;98888.31;4922277;29;20006;-73
2022/09/27 05:49:43;;;;;;;;;;;;;;;10.40;83.88;98893.94;4934301;29;19921;-73
2022/09/27 05:52:48;;;;;;;;;;;;;;;10.21;83.22;98893.66;4922919;29;19925;-73
2022/09/27 05:55:53;;;;;;;;;;;;;;;10.23;83.66;98903.03;4922245;29;19957;-73
2022/09/27 05:59:05;;;;;;;;;;;;;;;10.16;82.30;98911.47;4935360;28;20392;-73
2022/09/27 06:02:29;;;;;;;;;;;;;;;10.29;83.08;98907.00;4952690;28;19968;-73
2022/09/27 06:05:36;;;;;;;;;;;;;;;10.51;82.18;98913.19;4952578;28;19921;-73
2022/09/27 06:08:59;;;;;;;;;;;;;;;10.50;83.27;98911.50;4952228;28;19926;-73
2022/09/27 06:12:02;;;;;;;;;;;;;;;10.06;82.88;98919.16;4950301;28;19968;-73
2022/09/27 06:15:07;;;;;;;;;;;;;;;10.01;82.53;98922.13;4938432;28;20027;-73
2022/09/27 06:18:16;;;;;;;;;;;;;;;9.89;82.15;98923.06;4940246;28;20392;-72
2022/09/27 06:21:23;;;;;;;;;;;;;;;9.92;83.18;98928.06;4951540;28;20421;-73
2022/09/27 06:24:31;;;;;;;;;;;;;;;10.04;82.72;98928.06;4902689;29;20301;-73
2022/09/27 06:27:40;;;;;;;;;;;;;;;9.93;81.80;98927.09;4927756;28;19921;-73
2022/09/27 06:30:49;;;;;;;;;;;;;;;9.84;82.16;98933.00;4939978;29;19921;-73
2022/09/27 06:34:00;;;;;;;;;;;;;;;9.83;82.05;98936.56;4941667;28;19969;-73
2022/09/27 06:37:05;;;;;;;;;;;;;;;9.67;82.91;98947.31;4937670;29;19921;-73
2022/09/27 06:40:11;;;;;;;;;;;;;;;9.75;81.08;98950.19;4935126;29;19960;-73
2022/09/27 06:43:50;;;;;;;;;;;;;;;9.85;82.48;98957.31;4952536;28;20020;-73
2022/09/27 06:47:36;;;;;;;;;;;;;;;10.06;79.58;98954.91;4952370;28;19969;-72
2022/09/27 06:51:02;;;;;;;;;;;;;;;9.64;80.83;98967.59;4923698;29;19969;-73
2022/09/27 06:54:05;;;;;;;;;;;;;;;9.60;81.02;98976.56;4920291;29;19926;-72
2022/09/27 06:57:09;;;;;;;;;;;;;;;9.57;81.46;98971.56;4901514;29;20004;-73
2022/09/27 07:00:27;;;;;;;;;;;;;;;9.70;80.92;98967.97;4920279;29;19925;-73
2022/09/27 07:03:59;;;;;;;;;;;;;;;9.60;80.65;98971.34;4920421;29;19926;-73
2022/09/27 07:07:27;;;;;;;;;;;;;;;9.55;80.64;98958.66;4931613;29;20062;-72
2022/09/27 07:10:33;;;;;;;;;;;;;;;9.48;80.74;98960.03;4934874;29;20297;-72
2022/09/27 07:13:39;;;;;;;;;;;;;;;9.69;80.55;98970.69;4925360;29;20033;-72
2022/09/27 07:16:44;;;;;;;;;;;;;;;9.45;80.94;98971.53;4919472;29;19985;-73
2022/09/27 07:19:48;;;;;;;;;;;;;;;9.42;81.16;98989.19;4919464;29;19922;-72
2022/09/27 07:22:52;;;;;;;;;;;;;;;9.30;80.77;98996.94;4919355;29;19980;-72
2022/09/27 07:25:55;;;;;;;;;;;;;;;9.30;81.28;98994.31;4918912;29;19921;-73
2022/09/27 07:28:59;;;;;;;;;;;;;;;9.40;80.86;98997.09;4932023;29;19922;-73
2022/09/27 07:32:04;;;;;;;;;;;;;;;9.53;80.51;98995.28;4932599;29;19965;-73
2022/09/27 07:35:08;;;;;;;;;;;;;;;9.62;79.41;98999.00;4920435;29;19925;-73
2022/09/27 07:38:15;;;;;;;;;;;;;;;9.62;79.52;99006.00;4936235;29;19953;-73
2022/09/27 07:41:19;;;;;;;;;;;;;;;9.72;80.36;99012.22;4950275;29;19979;-73
2022/09/27 07:44:22;;;;;;;;;;;;;;;9.90;80.04;99010.88;4938901;29;20444;-74
2022/09/27 07:47:45;;;;;;;;;;;;;;;10.02;79.01;99012.59;4952919;28;19973;-74
2022/09/27 07:51:14;;;;;;;;;;;;;;;10.00;78.37;99011.84;4946691;29;19957;-74
2022/09/27 07:54:20;;;;;;;;;;;;;;;10.27;77.80;99016.00;4910656;29;19970;-74
2022/09/27 07:57:41;;;;;;;;;;;;;;;10.43;77.35;99003.47;4914879;29;20041;-74
2022/09/27 08:00:44;;;;;;;;;;;;;;;10.58;77.10;99005.84;4929943;29;20468;-74
2022/09/27 08:03:48;;;;;;;;;;;;;;;10.63;76.24;99011.56;4918390;29;19929;-74
2022/09/27 08:06:53;;;;;;;;;;;;;;;10.66;78.17;99016.56;4925218;29;19938;-78
2022/09/27 08:09:56;;;;;;;;;;;;;;;10.70;76.59;99007.53;4949828;28;20005;-77
2022/09/27 08:13:02;;;;;;;;;;;;;;;10.91;75.46;99002.41;4950263;29;19980;-77
2022/09/27 08:16:05;;;;;;;;;;;;;;;10.96;75.50;99002.06;4951277;29;19922;-77
2022/09/27 08:19:25;;;;;;;;;;;;;;;10.85;75.48;99006.34;4948914;29;19922;-78
2022/09/27 08:22:51;;;;;;;;;;;;;;;10.92;73.92;99017.16;4939492;28;19933;-78
2022/09/27 08:26:02;;;;;;;;;;;;;;;10.57;74.83;99015.47;4941158;28;20318;-77
2022/09/27 08:29:18;;;;;;;;;;;;;;;10.60;73.73;99017.84;4939361;28;19925;-76
2022/09/27 08:32:27;;;;;;;;;;;;;;;10.75;75.84;99023.66;4938805;28;19922;-76
2022/09/27 08:35:32;;;;;;;;;;;;;;;10.59;74.17;99023.19;4949594;28;19966;-76
2022/09/27 08:38:36;;;;;;;;;;;;;;;10.74;74.51;99022.00;4951919;28;20017;-76
2022/09/27 08:42:00;;;;;;;;;;;;;;;10.85;74.17;99035.09;4960445;28;20009;-76
2022/09/27 08:45:20;;;;;;;;;;;;;;;11.14;74.06;99030.22;4949449;28;20305;-77
2022/09/27 08:48:26;;;;;;;;;;;;;;;11.08;72.15;99041.16;4947640;29;19969;-77
2022/09/27 08:51:31;;;;;;;;;;;;;;;11.11;70.91;99040.09;4941274;29;19921;-77
2022/09/27 08:54:35;;;;;;;;;;;;;;;11.15;71.42;99046.75;4951828;29;20385;-77
2022/09/27 08:57:39;;;;;;;;;;;;;;;11.13;71.28;99043.41;4955556;28;19996;-77
2022/09/27 09:00:42;;;;;;;;;;;;;;;11.29;71.08;99054.31;4946182;28;20349;-77
2022/09/27 09:03:53;;;;;;;;;;;;;;;11.11;70.57;99048.78;4944381;28;20331;-76
2022/09/27 09:07:08;;;;;;;;;;;;;;;11.36;70.14;99052.91;4961099;28;19925;-77
2022/09/27 09:12:45;;;;;;;;;;;;;;;11.28;69.75;99041.38;4961698;28;20009;-77
2022/09/27 09:14:05;;;;;;;;;;;;;;;11.28;70.15;99046.63;4959664;28;19928;-77
2022/09/27 09:17:10;;;;;;;;;;;;;;;11.29;69.39;99049.09;4962316;28;20022;-77
2022/09/27 09:20:44;;;;;;;;;;;;;;;11.31;69.40;99056.84;4962319;28;20364;-77
2022/09/27 09:24:07;;;;;;;;;;;;;;;11.37;68.41;99053.75;4961690;28;19989;-77
2022/09/27 09:27:28;;;;;;;;;;;;;;;11.18;68.88;99051.75;4957446;28;20393;-77
2022/09/27 09:30:51;;;;;;;;;;;;;;;11.16;69.87;99049.22;4945214;28;19921;-77
2022/09/27 09:34:04;;;;;;;;;;;;;;;11.44;69.59;99043.63;4958128;28;19998;-77
2022/09/27 09:37:12;;;;;;;;;;;;;;;11.50;69.56;99045.75;4971522;28;19925;-77
2022/09/27 09:40:19;;;;;;;;;;;;;;;11.69;70.00;99040.69;4967160;28;19969;-76
2022/09/27 09:43:33;;;;;;;;;;;;;;;11.62;69.95;99047.38;4926107;29;19933;-77
2022/09/27 09:46:44;;;;;;;;;;;;;;;11.66;69.36;99042.75;4939619;28;20277;-77
2022/09/27 09:49:50;;;;;;;;;;;;;;;11.45;69.46;99029.56;4971682;28;20392;-76
2022/09/27 09:53:03;;;;;;;;;;;;;;;11.33;68.84;99036.63;4972344;28;19921;-77
2022/09/27 09:56:13;;;;;;;;;;;;;;;11.12;71.20;99033.91;4963178;28;19914;-77
2022/09/27 09:59:17;;;;;;;;;;;;;;;11.09;72.14;99026.28;4940404;28;19972;-77
2022/09/27 10:02:27;;;;;;;;;;;;;;;11.36;71.21;99029.38;4938959;28;20021;-77
2022/09/27 10:05:35;;;;;;;;;;;;;;;11.35;70.23;99029.47;4940747;28;20349;-77
2022/09/27 10:08:43;;;;;;;;;;;;;;;11.69;69.25;99025.00;4941319;28;19942;-77
2022/09/27 10:12:05;;;;;;;;;;;;;;;11.69;68.03;99024.16;4943304;28;20282;-77
2022/09/27 10:15:23;;;;;;;;;;;;;;;11.73;67.37;99026.41;4941687;28;20448;-76
2022/09/27 10:18:33;;;;;;;;;;;;;;;11.77;67.01;99022.59;4941008;28;19925;-77
2022/09/27 10:21:45;;;;;;;;;;;;;;;11.56;66.91;99021.69;4941302;28;20377;-77
2022/09/27 10:25:05;;;;;;;;;;;;;;;11.46;67.42;99018.16;4939610;28;20278;-78
2022/09/27 10:28:44;;;;;;;;;;;;;;;11.65;67.22;99018.34;4953531;28;20359;-78
2022/09/27 10:32:03;;;;;;;;;;;;;;;12.03;67.14;99017.06;4920983;29;19976;-78
2022/09/27 10:35:30;;;;;;;;;;;;;;;11.97;66.75;99001.84;4937780;28;19920;-77
2022/09/27 10:38:50;;;;;;;;;;;;;;;12.18;65.12;99009.69;4952677;28;20458;-78
2022/09/27 10:42:20;;;;;;;;;;;;;;;12.09;64.38;99006.91;4953735;28;20257;-78
2022/09/27 10:45:30;;;;;;;;;;;;;;;11.98;64.64;99009.56;4939230;28;20286;-77
2022/09/27 10:48:46;;;;;;;;;;;;;;;11.88;65.63;99019.13;4951391;28;19945;-78
2022/09/27 10:51:52;;;;;;;;;;;;;;;11.97;65.93;99022.78;4940356;28;19918;-77
2022/09/27 10:55:07;;;;;;;;;;;;;;;11.74;68.93;99016.75;4940208;28;19957;-77
2022/09/27 10:58:20;;;;;;;;;;;;;;;11.93;72.02;99016.13;4945689;28;19984;-77
2022/09/27 11:01:38;;;;;;;;;;;;;;;12.01;72.18;99004.06;4959098;28;19921;-77
2022/09/27 11:05:02;;;;;;;;;;;;;;;12.33;74.16;99001.38;4969771;28;19941;-77
2022/09/27 11:08:18;;;;;;;;;;;;;;;12.57;73.70;98992.41;4959110;28;19921;-77
2022/09/27 11:11:31;;;;;;;;;;;;;;;12.55;73.17;98989.91;4958866;28;19929;-76
2022/09/27 11:14:35;;;;;;;;;;;;;;;12.25;70.87;98988.09;4958291;28;19968;-76
2022/09/27 11:18:03;;;;;;;;;;;;;;;11.99;68.52;98994.66;4959547;28;20373;-76
2022/09/27 11:21:25;;;;;;;;;;;;;;;12.11;70.18;98996.28;4958425;28;20341;-77
2022/09/27 11:24:42;;;;;;;;;;;;;;;12.28;71.93;98995.72;4921756;29;19926;-76
2022/09/27 11:28:05;;;;;;;;;;;;;;;12.09;66.71;98990.31;4944931;28;19968;-76
2022/09/27 11:31:31;;;;;;;;;;;;;;;12.15;66.40;98984.56;4959368;28;19968;-77
2022/09/27 11:34:42;;;;;;;;;;;;;;;12.30;65.31;98982.47;4957285;28;20394;-77
2022/09/27 11:37:45;;;;;;;;;;;;;;;12.27;64.89;98978.31;4949061;28;19921;-76
2022/09/27 11:41:10;;;;;;;;;;;;;;;12.44;64.65;98978.69;4941747;28;19922;-76
2022/09/27 11:44:46;;;;;;;;;;;;;;;12.47;64.94;98973.19;4959221;28;19929;-76
2022/09/27 11:48:06;;;;;;;;;;;;;;;12.24;63.88;98967.25;4914402;29;20065;-77
2022/09/27 11:51:38;;;;;;;;;;;;;;;12.08;64.52;98972.94;4931571;29;20086;-77
2022/09/27 11:55:17;;;;;;;;;;;;;;;12.12;66.02;98978.75;4938799;28;19929;-77
2022/09/27 11:58:33;;;;;;;;;;;;;;;12.06;66.69;98980.09;4958085;28;19998;-77
2022/09/27 12:01:45;;;;;;;;;;;;;;;12.22;66.96;98979.66;4958756;28;19921;-76
2022/09/27 12:04:51;;;;;;;;;;;;;;;12.08;66.64;98983.44;4958879;28;19924;-77
2022/09/27 12:08:12;;;;;;;;;;;;;;;12.43;66.56;98977.03;4948007;28;20499;-77
2022/09/27 12:11:21;;;;;;;;;;;;;;;12.45;64.66;98983.81;4959450;28;19941;-77
2022/09/27 12:14:27;;;;;;;;;;;;;;;12.30;64.66;98977.22;4959977;28;19921;-77
2022/09/27 12:17:35;;;;;;;;;;;;;;;12.39;65.06;98970.38;4945030;28;20285;-77
2022/09/27 12:20:42;;;;;;;;;;;;;;;12.26;65.02;98974.03;4956382;28;20017;-77
2022/09/27 12:23:59;;;;;;;;;;;;;;;12.55;65.28;98970.75;4939658;28;19997;-77
2022/09/27 12:27:15;;;;;;;;;;;;;;;12.71;64.71;98971.09;4957391;28;19921;-77
2022/09/27 12:30:23;;;;;;;;;;;;;;;13.08;63.67;98965.28;4956774;28;20287;-77
2022/09/27 12:33:29;;;;;;;;;;;;;;;13.48;62.61;98962.63;4957379;28;19936;-76
2022/09/27 12:36:36;;;;;;;;;;;;;;;13.93;59.45;98962.06;4955943;28;19986;-75
2022/09/27 12:39:46;;;;;;;;;;;;;;;13.69;58.53;98973.00;4960006;28;20012;-75
2022/09/27 12:43:24;;;;;;;;;;;;;;;13.95;58.99;98975.91;4961583;28;20313;-75
2022/09/27 12:46:51;;;;;;;;;;;;;;;14.14;57.40;98955.84;4961910;28;19925;-76
2022/09/27 12:49:57;;;;;;;;;;;;;;;13.81;58.43;98957.09;4950967;28;19960;-76
2022/09/27 12:53:22;;;;;;;;;;;;;;;13.36;59.31;98965.50;4962019;28;19925;-76
2022/09/27 12:56:48;;;;;;;;;;;;;;;13.13;59.92;98962.25;4962034;28;20250;-76
2022/09/27 12:59:55;;;;;;;;;;;;;;;13.29;60.31;98952.09;4942845;29;19970;-75
2022/09/27 13:03:00;;;;;;;;;;;;;;;13.11;60.75;98951.88;4942890;29;19949;-76
2022/09/27 13:06:12;;;;;;;;;;;;;;;12.97;61.67;98952.25;4955316;29;19921;-75
2022/09/27 13:09:29;;;;;;;;;;;;;;;13.03;60.71;98947.31;4942757;29;19921;-75
2022/09/27 13:12:33;;;;;;;;;;;;;;;12.98;60.21;98952.13;4942285;29;19968;-75
2022/09/27 13:15:38;;;;;;;;;;;;;;;12.95;60.17;98954.19;4942587;29;20289;-76
2022/09/27 13:18:50;;;;;;;;;;;;;;;13.07;59.88;98945.25;4942777;29;19925;-75
2022/09/27 13:21:56;;;;;;;;;;;;;;;13.21;59.15;98957.16;4928400;29;20429;-75
2022/09/27 13:25:42;;;;;;;;;;;;;;;12.92;57.79;98962.31;4934766;29;19925;-75
2022/09/27 13:29:03;;;;;;;;;;;;;;;13.25;58.10;98941.03;4938639;29;19981;-75
2022/09/27 13:32:21;;;;;;;;;;;;;;;12.76;58.44;98947.94;4942432;29;19921;-76
2022/09/27 13:36:03;;;;;;;;;;;;;;;12.72;58.64;98946.50;4953438;28;19937;-76
2022/09/27 13:39:10;;;;;;;;;;;;;;;13.00;58.65;98944.13;4956719;29;19921;-76
2022/09/27 13:42:46;;;;;;;;;;;;;;;12.85;57.83;98945.47;4954580;29;19926;-76
2022/09/27 13:45:56;;;;;;;;;;;;;;;12.70;58.29;98945.84;4956888;29;20376;-76
2022/09/27 13:49:19;;;;;;;;;;;;;;;12.80;58.44;98946.69;4956892;29;20012;-76
2022/09/27 13:53:21;;;;;;;;;;;;;;;13.26;57.74;98936.63;4945773;29;19920;-76
2022/09/27 13:56:53;;;;;;;;;;;;;;;13.13;58.38;98942.09;4945161;29;19922;-76
2022/09/27 14:00:04;;;;;;;;;;;;;;;13.08;56.74;98943.44;4956461;28;19973;-76
2022/09/27 14:03:41;;;;;;;;;;;;;;;13.29;57.35;98932.91;4945080;29;19926;-76
2022/09/27 14:07:24;;;;;;;;;;;;;;;13.98;54.17;98924.88;4950111;29;20262;-76
2022/09/27 14:10:36;;;;;;;;;;;;;;;15.23;52.46;98932.41;4945159;29;20286;-76
2022/09/27 14:14:11;;;;;;;;;;;;;;;14.21;54.19;98938.50;4924326;29;19938;-76
2022/09/27 14:18:17;;;;;;;;;;;;;;;;;;;;;
2022/09/27 14:21:56;;;;;;;;;;;;;;;13.04;56.61;98943.72;4926402;29;19971;-76
2022/09/27 14:25:38;;;;;;;;;;;;;;;12.57;57.55;98948.69;4913161;29;19926;-76
2022/09/27 14:29:37;;;;;;;;;;;;;;;12.77;57.31;98941.72;4932506;29;19966;-76
2022/09/27 14:32:49;;;;;;;;;;;;;;;13.10;56.38;98934.47;4911297;29;19925;-76
2022/09/27 14:39:30;;;;;;;;;;;;;;;13.29;57.00;98932.91;4920729;29;19966;-76
2022/09/27 14:42:35;;;;;;;;;;;;;;;13.17;56.52;98925.09;4933953;28;20428;-76
2022/09/27 14:45:40;;;;;;;;;;;;;;;13.28;56.83;98928.63;4952050;28;20005;-76
2022/09/27 14:48:43;;;;;;;;;;;;;;;13.51;56.08;98924.75;4944169;28;19921;-76
2022/09/27 14:51:53;;;;;;;;;;;;;;;12.75;57.20;98935.75;4932964;29;19924;-76
2022/09/27 14:54:58;;;;;;;;;;;;;;;12.88;57.05;98929.47;4932509;29;20394;-76
2022/09/27 14:58:03;;;;;;;;;;;;;;;13.22;56.90;98930.78;4936697;29;19929;-76
2022/09/27 15:01:14;;;;;;;;;;;;;;;13.12;57.25;98923.88;4952557;28;19937;-76
2022/09/27 15:04:19;;;;;;;;;;;;;;;13.14;57.95;98928.00;4951670;28;19972;-76
2022/09/27 15:07:26;;;;;;;;;;;;;;;13.22;59.01;98935.19;4952257;28;19953;-76
2022/09/27 15:10:33;;;;;;;;;;;;;;;13.21;61.03;98931.75;4951652;28;19925;-76
2022/09/27 15:13:40;;;;;;;;;;;;;;;13.06;59.77;98932.28;4952640;28;19965;-76
2022/09/27 15:16:46;;;;;;;;;;;;;;;12.74;57.40;98933.28;4952328;28;19925;-76
2022/09/27 15:20:16;;;;;;;;;;;;;;;12.85;57.72;98940.22;4951741;28;20227;-76
2022/09/27 15:23:29;;;;;;;;;;;;;;;12.90;58.30;98949.34;4945750;28;19924;-76
2022/09/27 15:26:34;;;;;;;;;;;;;;;12.72;58.55;98951.75;4931980;29;20305;-76
2022/09/27 15:29:38;;;;;;;;;;;;;;;12.69;58.46;98959.88;4920564;29;19917;-76
2022/09/27 15:32:47;;;;;;;;;;;;;;;12.67;58.33;98963.63;4931687;29;20425;-76
2022/09/27 15:35:54;;;;;;;;;;;;;;;12.57;59.04;98951.31;4933814;28;20331;-76
2022/09/27 15:39:09;;;;;;;;;;;;;;;12.59;59.49;98953.78;4950078;28;19992;-76
2022/09/27 15:42:18;;;;;;;;;;;;;;;12.34;62.51;98963.72;4950924;29;19921;-77
2022/09/27 15:45:48;;;;;;;;;;;;;;;12.16;61.92;98986.25;4949892;28;19920;-76
2022/09/27 15:49:15;;;;;;;;;;;;;;;12.03;66.22;99006.56;4951716;28;19921;-75
2022/09/27 15:52:51;;;;;;;;;;;;;;;12.02;67.23;99010.94;4950735;28;19960;-76
2022/09/27 15:55:57;;;;;;;;;;;;;;;11.69;67.56;99011.06;4950805;28;19972;-76
2022/09/27 15:59:03;;;;;;;;;;;;;;;11.29;70.47;99017.69;4950229;28;19968;-76
2022/09/27 16:02:15;;;;;;;;;;;;;;;11.25;70.39;99024.13;4950599;28;19921;-76
2022/09/27 16:14:20;;;;;;;;;;;;;;;11.39;75.74;99018.66;4862067;29;19922;-76
2022/09/27 16:17:24;;;;;;;;;;;;;;;11.44;75.32;99030.53;4947013;29;19960;-76
2022/09/27 16:20:28;;;;;;;;;;;;;;;11.60;76.77;99028.34;4955215;29;20369;-76
2022/09/27 16:23:34;;;;;;;;;;;;;;;11.62;76.07;99019.41;4955029;29;20014;-76
2022/09/27 16:26:39;;;;;;;;;;;;;;;11.61;76.88;99022.16;4955374;29;19921;-76
2022/09/27 16:33:57;;;;;;;;;;;;;;;;;;;;;
2022/09/27 16:42:19;;;;;;;;;;;;;;;11.18;80.78;99033.41;4955315;29;19922;-75
2022/09/27 16:45:31;;;;;;;;;;;;;;;11.39;79.62;99031.75;4955210;29;20266;-75
2022/09/27 16:48:35;;;;;;;;;;;;;;;11.29;79.94;99035.19;4955165;29;19961;-76
2022/09/27 16:51:59;;;;;;;;;;;;;;;11.27;80.14;99039.72;4955177;29;19922;-76
2022/09/27 16:55:07;;;;;;;;;;;;;;;11.27;80.46;99035.31;4954887;29;19925;-75
2022/09/27 16:58:15;;;;;;;;;;;;;;;11.27;80.47;99039.72;4954740;29;19925;-75
2022/09/27 17:01:20;;;;;;;;;;;;;;;11.19;80.65;99032.47;4954908;29;20354;-75
2022/09/27 17:04:26;;;;;;;;;;;;;;;11.33;80.31;99036.63;4954587;28;20579;-75
2022/09/27 17:08:09;;;;;;;;;;;;;;;11.40;79.44;99030.78;4935856;29;20282;-75
2022/09/27 17:11:17;;;;;;;;;;;;;;;11.09;80.76;99037.59;4947251;29;19961;-75
2022/09/27 17:14:22;;;;;;;;;;;;;;;11.10;81.32;99041.03;4958533;29;19960;-75
2022/09/27 17:17:27;;;;;;;;;;;;;;;11.15;81.86;99041.50;4958574;28;19922;-75
2022/09/27 17:20:31;;;;;;;;;;;;;;;11.12;81.75;99041.75;4958107;28;20334;-76
2022/09/27 17:23:41;;;;;;;;;;;;;;;11.09;81.57;99045.44;4957702;28;19925;-76
2022/09/27 17:26:50;;;;;;;;;;;;;;;11.26;80.79;99038.03;4958567;28;19976;-76
2022/09/27 17:29:55;;;;;;;;;;;;;;;11.12;81.38;99041.75;4957710;28;19961;-76
2022/09/27 17:33:00;;;;;;;;;;;;;;;11.31;81.52;99038.53;4946578;28;19921;-76
2022/09/27 17:36:07;;;;;;;;;;;;;;;11.22;82.34;99037.44;4958168;28;20034;-76
2022/09/27 17:39:12;;;;;;;;;;;;;;;10.83;84.02;99037.00;4958186;28;19937;-76
2022/09/27 17:42:23;;;;;;;;;;;;;;;10.21;87.42;99034.69;4957771;28;19965;-76
2022/09/27 17:45:56;;;;;;;;;;;;;;;10.59;86.22;99028.41;4957142;28;19922;-76
2022/09/27 17:52:54;;;;;;;;;;;;;;;10.82;84.41;99027.50;4957958;28;19973;-76
2022/09/27 17:56:01;;;;;;;;;;;;;;;10.74;84.24;99029.84;4957723;28;20453;-76